sensor_id;sensor_type;location;lat;lon;timestamp;pressure;altitude;pressure_sealevel;temperature;humidity
21203;BME280;10759;51.982;9.232;2022-12-18T00:00:06;101764.84;;;-9.27;100.00
21203;BME280;10759;51.982;9.232;2022-12-18T00:02:39;101763.34;;;-9.10;100.00
21203;BME280;10759;51.982;9.232;2022-12-18T00:05:07;101778.81;;;-9.12;100.00
21203;BME280;10759;51.982;9.232;2022-12-18T00:07:35;101740.97;;;-9.21;100.00
21203;BME280;10759;51.982;9.232;2022-12-18T00:10:05;101773.31;;;-9.03;100.00
21203;BME280;10759;51.982;9.232;2022-12-18T00:12:33;101693.88;;;-9.54;100.00
21203;BME280;10759;51.982;9.232;2022-12-18T00:15:01;101774.03;;;-9.19;100.00
21203;BME280;10759;51.982;9.232;2022-12-18T00:17:30;101709.69;;;-9.64;100.00
21203;BME280;10759;51.982;9.232;2022-12-18T00:19:59;101783.72;;;-9.16;100.00
21203;BME280;10759;51.982;9.232;2022-12-18T00:22:27;101793.50;;;-9.25;100.00
21203;BME280;10759;51.982;9.232;2022-12-18T00:24:55;101793.31;;;-9.29;100.00
21203;BME280;10759;51.982;9.232;2022-12-18T00:27:23;101792.44;;;-9.42;100.00
21203;BME280;10759;51.982;9.232;2022-12-18T00:29:51;101780.53;;;-9.39;100.00
21203;BME280;10759;51.982;9.232;2022-12-18T00:32:19;101784.31;;;-9.34;100.00
21203;BME280;10759;51.982;9.232;2022-12-18T00:34:48;101766.97;;;-9.35;100.00
21203;BME280;10759;51.982;9.232;2022-12-18T00:37:16;101786.53;;;-9.26;100.00
21203;BME280;10759;51.982;9.232;2022-12-18T00:39:50;101691.91;;;-9.98;100.00
21203;BME280;10759;51.982;9.232;2022-12-18T00:42:19;101781.16;;;-9.56;100.00
21203;BME280;10759;51.982;9.232;2022-12-18T00:45:05;101789.91;;;-9.41;100.00
21203;BME280;10759;51.982;9.232;2022-12-18T00:47:39;101786.72;;;-9.37;100.00
21203;BME280;10759;51.982;9.232;2022-12-18T00:50:09;101724.94;;;-9.82;100.00
21203;BME280;10759;51.982;9.232;2022-12-18T00:52:37;101768.06;;;-9.58;100.00
21203;BME280;10759;51.982;9.232;2022-12-18T00:55:08;101783.63;;;-9.58;100.00
21203;BME280;10759;51.982;9.232;2022-12-18T00:57:36;101797.81;;;-9.79;100.00
21203;BME280;10759;51.982;9.232;2022-12-18T01:00:08;101808.06;;;-9.67;100.00
21203;BME280;10759;51.982;9.232;2022-12-18T01:02:37;101795.81;;;-9.57;100.00
21203;BME280;10759;51.982;9.232;2022-12-18T01:05:08;101791.34;;;-9.59;100.00
21203;BME280;10759;51.982;9.232;2022-12-18T01:07:36;101793.59;;;-9.77;100.00
21203;BME280;10759;51.982;9.232;2022-12-18T01:10:05;101756.69;;;-9.73;100.00
21203;BME280;10759;51.982;9.232;2022-12-18T01:12:34;101795.31;;;-9.51;100.00
21203;BME280;10759;51.982;9.232;2022-12-18T01:15:05;101740.22;;;-9.74;100.00
21203;BME280;10759;51.982;9.232;2022-12-18T01:17:33;101802.13;;;-9.40;100.00
21203;BME280;10759;51.982;9.232;2022-12-18T01:20:01;101788.53;;;-9.49;100.00
21203;BME280;10759;51.982;9.232;2022-12-18T01:22:33;101791.81;;;-9.38;100.00
21203;BME280;10759;51.982;9.232;2022-12-18T01:25:01;101774.47;;;-9.39;100.00
21203;BME280;10759;51.982;9.232;2022-12-18T01:27:30;101787.13;;;-9.31;100.00
21203;BME280;10759;51.982;9.232;2022-12-18T01:29:58;101750.00;;;-9.56;100.00
21203;BME280;10759;51.982;9.232;2022-12-18T01:32:29;101778.84;;;-9.38;100.00
21203;BME280;10759;51.982;9.232;2022-12-18T01:34:57;101786.13;;;-9.19;100.00
21203;BME280;10759;51.982;9.232;2022-12-18T01:37:26;101639.34;;;-9.96;100.00
21203;BME280;10759;51.982;9.232;2022-12-18T01:39:56;101632.53;;;-9.80;100.00
21203;BME280;10759;51.982;9.232;2022-12-18T01:42:24;101796.53;;;-8.91;100.00
21203;BME280;10759;51.982;9.232;2022-12-18T01:44:56;101673.13;;;-9.67;100.00
21203;BME280;10759;51.982;9.232;2022-12-18T01:47:27;101804.41;;;-8.76;100.00
21203;BME280;10759;51.982;9.232;2022-12-18T01:49:58;101710.44;;;-9.39;100.00
21203;BME280;10759;51.982;9.232;2022-12-18T01:52:29;101790.56;;;-8.62;100.00
21203;BME280;10759;51.982;9.232;2022-12-18T01:55:00;101808.16;;;-8.58;100.00
21203;BME280;10759;51.982;9.232;2022-12-18T01:57:30;101792.88;;;-8.67;100.00
21203;BME280;10759;51.982;9.232;2022-12-18T02:00:03;101793.81;;;-8.66;100.00
21203;BME280;10759;51.982;9.232;2022-12-18T02:02:39;101747.66;;;-8.83;100.00
21203;BME280;10759;51.982;9.232;2022-12-18T02:05:09;101785.94;;;-8.53;100.00
21203;BME280;10759;51.982;9.232;2022-12-18T02:07:43;101682.56;;;-9.00;100.00
21203;BME280;10759;51.982;9.232;2022-12-18T02:10:20;101786.84;;;-8.37;100.00
21203;BME280;10759;51.982;9.232;2022-12-18T02:12:56;101781.03;;;-8.33;100.00
21203;BME280;10759;51.982;9.232;2022-12-18T02:15:31;101775.22;;;-8.29;100.00
21203;BME280;10759;51.982;9.232;2022-12-18T02:18:05;101766.94;;;-8.52;100.00
21203;BME280;10759;51.982;9.232;2022-12-18T02:20:38;101661.88;;;-8.83;100.00
21203;BME280;10759;51.982;9.232;2022-12-18T02:23:16;101769.75;;;-8.49;100.00
21203;BME280;10759;51.982;9.232;2022-12-18T02:26:04;101783.47;;;-8.36;100.00
21203;BME280;10759;51.982;9.232;2022-12-18T02:28:36;101786.31;;;-8.32;100.00
21203;BME280;10759;51.982;9.232;2022-12-18T02:31:11;101755.16;;;-8.17;100.00
21203;BME280;10759;51.982;9.232;2022-12-18T02:33:40;101786.19;;;-7.90;100.00
21203;BME280;10759;51.982;9.232;2022-12-18T02:36:10;101776.59;;;-8.06;100.00
21203;BME280;10759;51.982;9.232;2022-12-18T02:38:43;101677.00;;;-8.63;100.00
21203;BME280;10759;51.982;9.232;2022-12-18T02:41:16;101734.38;;;-8.30;100.00
21203;BME280;10759;51.982;9.232;2022-12-18T02:43:52;101779.00;;;-8.09;100.00
21203;BME280;10759;51.982;9.232;2022-12-18T02:46:28;101710.19;;;-8.44;100.00
21203;BME280;10759;51.982;9.232;2022-12-18T02:49:08;101772.81;;;-8.11;100.00
21203;BME280;10759;51.982;9.232;2022-12-18T02:51:48;101744.19;;;-8.26;100.00
21203;BME280;10759;51.982;9.232;2022-12-18T02:54:29;101737.19;;;-8.42;100.00
21203;BME280;10759;51.982;9.232;2022-12-18T02:57:12;101768.59;;;-8.24;100.00
21203;BME280;10759;51.982;9.232;2022-12-18T02:59:50;101620.91;;;-9.02;100.00
21203;BME280;10759;51.982;9.232;2022-12-18T03:02:26;101763.03;;;-8.15;100.00
21203;BME280;10759;51.982;9.232;2022-12-18T03:05:01;101755.22;;;-8.01;100.00
21203;BME280;10759;51.982;9.232;2022-12-18T03:07:36;101702.56;;;-8.26;100.00
21203;BME280;10759;51.982;9.232;2022-12-18T03:10:12;101757.66;;;-8.04;100.00
21203;BME280;10759;51.982;9.232;2022-12-18T03:12:48;101760.69;;;-7.96;100.00
21203;BME280;10759;51.982;9.232;2022-12-18T03:15:21;101755.78;;;-7.91;100.00
21203;BME280;10759;51.982;9.232;2022-12-18T03:18:02;101742.31;;;-7.99;100.00
21203;BME280;10759;51.982;9.232;2022-12-18T03:20:34;101756.13;;;-8.00;100.00
21203;BME280;10759;51.982;9.232;2022-12-18T03:23:06;101762.31;;;-7.98;100.00
21203;BME280;10759;51.982;9.232;2022-12-18T03:25:36;101644.00;;;-8.49;100.00
21203;BME280;10759;51.982;9.232;2022-12-18T03:28:12;101743.19;;;-8.13;100.00
21203;BME280;10759;51.982;9.232;2022-12-18T03:30:43;101781.34;;;-7.84;100.00
21203;BME280;10759;51.982;9.232;2022-12-18T03:33:16;101770.84;;;-8.01;100.00
21203;BME280;10759;51.982;9.232;2022-12-18T03:35:49;101708.66;;;-8.26;100.00
21203;BME280;10759;51.982;9.232;2022-12-18T03:38:18;101603.56;;;-8.74;100.00
21203;BME280;10759;51.982;9.232;2022-12-18T03:40:58;101765.19;;;-7.93;100.00
21203;BME280;10759;51.982;9.232;2022-12-18T03:43:43;101763.31;;;-7.96;100.00
21203;BME280;10759;51.982;9.232;2022-12-18T03:46:19;101778.81;;;-7.83;100.00
21203;BME280;10759;51.982;9.232;2022-12-18T03:48:56;101736.38;;;-8.11;100.00
21203;BME280;10759;51.982;9.232;2022-12-18T03:51:35;101786.19;;;-7.90;100.00
21203;BME280;10759;51.982;9.232;2022-12-18T03:54:06;101780.97;;;-7.90;100.00
21203;BME280;10759;51.982;9.232;2022-12-18T03:56:45;101777.56;;;-8.04;100.00
21203;BME280;10759;51.982;9.232;2022-12-18T03:59:16;101755.22;;;-8.01;100.00
21203;BME280;10759;51.982;9.232;2022-12-18T04:01:49;101772.88;;;-7.95;100.00
21203;BME280;10759;51.982;9.232;2022-12-18T04:04:20;101726.59;;;-8.30;100.00
21203;BME280;10759;51.982;9.232;2022-12-18T04:06:50;101774.81;;;-7.92;100.00
21203;BME280;10759;51.982;9.232;2022-12-18T04:09:23;101771.00;;;-7.83;100.00
21203;BME280;10759;51.982;9.232;2022-12-18T04:11:52;101767.44;;;-7.70;100.00
21203;BME280;10759;51.982;9.232;2022-12-18T04:14:22;101788.00;;;-7.89;100.00
21203;BME280;10759;51.982;9.232;2022-12-18T04:16:54;101722.56;;;-8.10;100.00
21203;BME280;10759;51.982;9.232;2022-12-18T04:19:28;101788.50;;;-7.80;100.00
21203;BME280;10759;51.982;9.232;2022-12-18T04:21:56;101710.72;;;-8.20;100.00
21203;BME280;10759;51.982;9.232;2022-12-18T04:24:26;101795.16;;;-7.85;100.00
21203;BME280;10759;51.982;9.232;2022-12-18T04:27:04;101792.81;;;-7.95;100.00
21203;BME280;10759;51.982;9.232;2022-12-18T04:29:40;101784.50;;;-8.05;100.00
21203;BME280;10759;51.982;9.232;2022-12-18T04:32:08;101787.72;;;-8.09;100.00
21203;BME280;10759;51.982;9.232;2022-12-18T04:34:37;101789.44;;;-7.94;100.00
21203;BME280;10759;51.982;9.232;2022-12-18T04:37:06;101745.97;;;-8.10;100.00
21203;BME280;10759;51.982;9.232;2022-12-18T04:39:34;101786.38;;;-8.02;100.00
21203;BME280;10759;51.982;9.232;2022-12-18T04:42:11;101783.41;;;-8.08;100.00
21203;BME280;10759;51.982;9.232;2022-12-18T04:44:41;101788.88;;;-8.04;100.00
21203;BME280;10759;51.982;9.232;2022-12-18T04:47:09;101792.91;;;-8.09;100.00
21203;BME280;10759;51.982;9.232;2022-12-18T04:49:36;101793.97;;;-8.05;100.00
21203;BME280;10759;51.982;9.232;2022-12-18T04:52:07;101798.22;;;-7.92;100.00
21203;BME280;10759;51.982;9.232;2022-12-18T04:54:35;101802.00;;;-7.87;100.00
21203;BME280;10759;51.982;9.232;2022-12-18T04:57:03;101799.44;;;-8.15;100.00
21203;BME280;10759;51.982;9.232;2022-12-18T04:59:31;101751.28;;;-8.24;100.00
21203;BME280;10759;51.982;9.232;2022-12-18T05:02:01;101787.31;;;-8.15;100.00
21203;BME280;10759;51.982;9.232;2022-12-18T05:04:29;101757.00;;;-8.44;100.00
21203;BME280;10759;51.982;9.232;2022-12-18T05:06:57;101775.41;;;-8.26;100.00
21203;BME280;10759;51.982;9.232;2022-12-18T05:09:25;101707.06;;;-8.53;100.00
21203;BME280;10759;51.982;9.232;2022-12-18T05:11:53;101679.22;;;-8.69;100.00
21203;BME280;10759;51.982;9.232;2022-12-18T05:14:21;101781.59;;;-8.24;100.00
21203;BME280;10759;51.982;9.232;2022-12-18T05:16:49;101639.91;;;-9.03;100.00
21203;BME280;10759;51.982;9.232;2022-12-18T05:19:20;101797.56;;;-8.18;100.00
21203;BME280;10759;51.982;9.232;2022-12-18T05:21:48;101648.69;;;-9.01;100.00
21203;BME280;10759;51.982;9.232;2022-12-18T05:24:16;101742.47;;;-8.40;100.00
21203;BME280;10759;51.982;9.232;2022-12-18T05:26:44;101758.97;;;-8.25;100.00
21203;BME280;10759;51.982;9.232;2022-12-18T05:29:13;101787.16;;;-8.03;100.00
21203;BME280;10759;51.982;9.232;2022-12-18T05:31:40;101727.69;;;-8.41;100.00
21203;BME280;10759;51.982;9.232;2022-12-18T05:34:09;101684.69;;;-8.65;100.00
21203;BME280;10759;51.982;9.232;2022-12-18T05:36:38;101782.34;;;-8.12;100.00
21203;BME280;10759;51.982;9.232;2022-12-18T05:39:06;101785.09;;;-8.09;100.00
21203;BME280;10759;51.982;9.232;2022-12-18T05:41:34;101778.91;;;-8.11;100.00
21203;BME280;10759;51.982;9.232;2022-12-18T05:44:03;101754.94;;;-8.20;100.00
21203;BME280;10759;51.982;9.232;2022-12-18T05:46:31;101790.31;;;-8.09;100.00
21203;BME280;10759;51.982;9.232;2022-12-18T05:48:59;101802.31;;;-8.11;100.00
21203;BME280;10759;51.982;9.232;2022-12-18T05:51:27;101805.34;;;-8.18;100.00
21203;BME280;10759;51.982;9.232;2022-12-18T05:53:57;101782.41;;;-8.10;100.00
21203;BME280;10759;51.982;9.232;2022-12-18T05:56:24;101692.31;;;-8.68;100.00
21203;BME280;10759;51.982;9.232;2022-12-18T05:58:53;101809.31;;;-7.95;100.00
21203;BME280;10759;51.982;9.232;2022-12-18T06:01:22;101761.41;;;-8.28;100.00
21203;BME280;10759;51.982;9.232;2022-12-18T06:03:50;101814.91;;;-8.04;100.00
21203;BME280;10759;51.982;9.232;2022-12-18T06:06:20;101808.09;;;-8.02;100.00
21203;BME280;10759;51.982;9.232;2022-12-18T06:08:49;101815.19;;;-7.99;100.00
21203;BME280;10759;51.982;9.232;2022-12-18T06:11:20;101750.81;;;-8.31;100.00
21203;BME280;10759;51.982;9.232;2022-12-18T06:13:49;101751.34;;;-8.22;100.00
21203;BME280;10759;51.982;9.232;2022-12-18T06:16:24;101809.59;;;-7.90;100.00
21203;BME280;10759;51.982;9.232;2022-12-18T06:18:52;101740.19;;;-8.34;100.00
21203;BME280;10759;51.982;9.232;2022-12-18T06:21:20;101799.09;;;-8.07;100.00
21203;BME280;10759;51.982;9.232;2022-12-18T06:23:48;101794.38;;;-7.99;100.00
21203;BME280;10759;51.982;9.232;2022-12-18T06:26:16;101760.50;;;-8.29;100.00
21203;BME280;10759;51.982;9.232;2022-12-18T06:28:51;101783.50;;;-8.07;100.00
21203;BME280;10759;51.982;9.232;2022-12-18T06:31:19;101796.84;;;-8.01;100.00
21203;BME280;10759;51.982;9.232;2022-12-18T06:33:47;101770.38;;;-8.08;100.00
21203;BME280;10759;51.982;9.232;2022-12-18T06:36:15;101787.81;;;-7.92;100.00
21203;BME280;10759;51.982;9.232;2022-12-18T06:38:44;101795.06;;;-8.02;100.00
21203;BME280;10759;51.982;9.232;2022-12-18T06:41:13;101807.66;;;-7.94;100.00
21203;BME280;10759;51.982;9.232;2022-12-18T06:43:42;101812.56;;;-8.14;100.00
21203;BME280;10759;51.982;9.232;2022-12-18T06:46:12;101798.19;;;-8.07;100.00
21203;BME280;10759;51.982;9.232;2022-12-18T06:48:40;101817.69;;;-8.01;100.00
21203;BME280;10759;51.982;9.232;2022-12-18T06:51:08;101743.81;;;-8.32;100.00
21203;BME280;10759;51.982;9.232;2022-12-18T06:53:36;101806.19;;;-8.19;100.00
21203;BME280;10759;51.982;9.232;2022-12-18T06:56:06;101810.38;;;-8.21;100.00
21203;BME280;10759;51.982;9.232;2022-12-18T06:58:36;101824.41;;;-8.04;100.00
21203;BME280;10759;51.982;9.232;2022-12-18T07:01:06;101821.56;;;-8.22;100.00
21203;BME280;10759;51.982;9.232;2022-12-18T07:03:36;101832.28;;;-8.03;100.00
21203;BME280;10759;51.982;9.232;2022-12-18T07:06:05;101819.97;;;-8.20;100.00
21203;BME280;10759;51.982;9.232;2022-12-18T07:08:34;101834.63;;;-8.07;100.00
21203;BME280;10759;51.982;9.232;2022-12-18T07:11:03;101812.53;;;-8.44;100.00
21203;BME280;10759;51.982;9.232;2022-12-18T07:13:32;101849.66;;;-8.31;100.00
21203;BME280;10759;51.982;9.232;2022-12-18T07:16:04;101819.16;;;-8.49;100.00
21203;BME280;10759;51.982;9.232;2022-12-18T07:18:43;101854.94;;;-8.30;100.00
21203;BME280;10759;51.982;9.232;2022-12-18T07:21:12;101854.47;;;-8.37;100.00
21203;BME280;10759;51.982;9.232;2022-12-18T07:23:40;101857.63;;;-8.28;100.00
21203;BME280;10759;51.982;9.232;2022-12-18T07:26:10;101856.09;;;-8.39;100.00
21203;BME280;10759;51.982;9.232;2022-12-18T07:28:39;101847.94;;;-8.31;100.00
21203;BME280;10759;51.982;9.232;2022-12-18T07:31:09;101863.97;;;-8.38;100.00
21203;BME280;10759;51.982;9.232;2022-12-18T07:33:38;101806.16;;;-8.49;100.00
21203;BME280;10759;51.982;9.232;2022-12-18T07:36:09;101861.16;;;-8.13;100.00
21203;BME280;10759;51.982;9.232;2022-12-18T07:38:38;101850.19;;;-8.22;100.00
21203;BME280;10759;51.982;9.232;2022-12-18T07:41:08;101855.34;;;-8.09;100.00
21203;BME280;10759;51.982;9.232;2022-12-18T07:43:38;101850.75;;;-8.13;100.00
21203;BME280;10759;51.982;9.232;2022-12-18T07:46:08;101816.88;;;-8.14;100.00
21203;BME280;10759;51.982;9.232;2022-12-18T07:48:39;101846.00;;;-8.20;100.00
21203;BME280;10759;51.982;9.232;2022-12-18T07:51:09;101842.19;;;-8.12;100.00
21203;BME280;10759;51.982;9.232;2022-12-18T07:53:41;101842.19;;;-8.12;100.00
21203;BME280;10759;51.982;9.232;2022-12-18T07:56:11;101836.94;;;-8.27;100.00
21203;BME280;10759;51.982;9.232;2022-12-18T07:58:57;101844.34;;;-8.48;100.00
21203;BME280;10759;51.982;9.232;2022-12-18T08:01:26;101818.69;;;-8.70;100.00
21203;BME280;10759;51.982;9.232;2022-12-18T08:03:55;101813.25;;;-8.88;100.00
21203;BME280;10759;51.982;9.232;2022-12-18T08:06:24;101818.94;;;-8.80;100.00
21203;BME280;10759;51.982;9.232;2022-12-18T08:08:52;101851.13;;;-8.78;100.00
21203;BME280;10759;51.982;9.232;2022-12-18T08:11:21;101844.72;;;-8.96;100.00
21203;BME280;10759;51.982;9.232;2022-12-18T08:13:50;101786.41;;;-9.28;100.00
21203;BME280;10759;51.982;9.232;2022-12-18T08:16:18;101826.94;;;-9.03;100.00
21203;BME280;10759;51.982;9.232;2022-12-18T08:18:46;101828.06;;;-9.00;100.00
21203;BME280;10759;51.982;9.232;2022-12-18T08:21:17;101835.63;;;-8.90;100.00
21203;BME280;10759;51.982;9.232;2022-12-18T08:23:49;101848.81;;;-8.73;100.00
21203;BME280;10759;51.982;9.232;2022-12-18T08:26:20;101852.38;;;-8.58;100.00
21203;BME280;10759;51.982;9.232;2022-12-18T08:28:49;101772.38;;;-8.90;100.00
21203;BME280;10759;51.982;9.232;2022-12-18T08:31:17;101824.06;;;-8.38;100.00
21203;BME280;10759;51.982;9.232;2022-12-18T08:33:48;101813.41;;;-8.28;100.00
21203;BME280;10759;51.982;9.232;2022-12-18T08:36:16;101829.50;;;-8.06;100.00
21203;BME280;10759;51.982;9.232;2022-12-18T08:38:46;101805.94;;;-7.94;100.00
21203;BME280;10759;51.982;9.232;2022-12-18T08:41:16;101815.25;;;-7.68;100.00
21203;BME280;10759;51.982;9.232;2022-12-18T08:43:45;101806.38;;;-7.57;100.00
21203;BME280;10759;51.982;9.232;2022-12-18T08:46:35;101770.09;;;-7.53;100.00
21203;BME280;10759;51.982;9.232;2022-12-18T08:49:04;101807.88;;;-7.16;100.00
21203;BME280;10759;51.982;9.232;2022-12-18T08:51:33;101772.75;;;-7.22;100.00
21203;BME280;10759;51.982;9.232;2022-12-18T08:54:01;101814.72;;;-6.86;100.00
21203;BME280;10759;51.982;9.232;2022-12-18T08:56:36;101774.09;;;-6.98;100.00
21203;BME280;10759;51.982;9.232;2022-12-18T08:59:05;101703.06;;;-7.41;100.00
21203;BME280;10759;51.982;9.232;2022-12-18T09:01:33;101812.72;;;-6.59;100.00
21203;BME280;10759;51.982;9.232;2022-12-18T09:04:01;101765.50;;;-6.80;100.00
21203;BME280;10759;51.982;9.232;2022-12-18T09:06:30;101676.69;;;-7.47;100.00
21203;BME280;10759;51.982;9.232;2022-12-18T09:09:04;101816.03;;;-6.45;100.00
21203;BME280;10759;51.982;9.232;2022-12-18T09:11:32;101817.44;;;-6.36;100.00
21203;BME280;10759;51.982;9.232;2022-12-18T09:14:02;101833.25;;;-6.33;100.00
21203;BME280;10759;51.982;9.232;2022-12-18T09:16:30;101822.72;;;-6.18;100.00
21203;BME280;10759;51.982;9.232;2022-12-18T09:18:59;101777.81;;;-6.61;100.00
21203;BME280;10759;51.982;9.232;2022-12-18T09:21:30;101829.66;;;-6.18;100.00
21203;BME280;10759;51.982;9.232;2022-12-18T09:24:01;101809.66;;;-6.18;100.00
21203;BME280;10759;51.982;9.232;2022-12-18T09:26:34;101702.25;;;-6.60;100.00
21203;BME280;10759;51.982;9.232;2022-12-18T09:29:05;101813.78;;;-5.89;100.00
21203;BME280;10759;51.982;9.232;2022-12-18T09:31:34;101809.63;;;-5.85;100.00
21203;BME280;10759;51.982;9.232;2022-12-18T09:34:05;101821.78;;;-5.86;100.00
21203;BME280;10759;51.982;9.232;2022-12-18T09:36:33;101806.56;;;-5.94;100.00
21203;BME280;10759;51.982;9.232;2022-12-18T09:39:02;101811.34;;;-5.86;100.00
21203;BME280;10759;51.982;9.232;2022-12-18T09:41:46;101802.66;;;-5.85;100.00
21203;BME280;10759;51.982;9.232;2022-12-18T09:44:22;101805.91;;;-5.72;100.00
21203;BME280;10759;51.982;9.232;2022-12-18T09:46:57;101791.13;;;-5.54;100.00
21203;BME280;10759;51.982;9.232;2022-12-18T09:49:29;101808.22;;;-5.26;100.00
21203;BME280;10759;51.982;9.232;2022-12-18T09:52:02;101782.72;;;-5.30;100.00
21203;BME280;10759;51.982;9.232;2022-12-18T09:54:35;101803.06;;;-5.07;100.00
21203;BME280;10759;51.982;9.232;2022-12-18T09:57:15;101795.94;;;-4.91;100.00
21203;BME280;10759;51.982;9.232;2022-12-18T09:59:51;101784.94;;;-4.84;100.00
21203;BME280;10759;51.982;9.232;2022-12-18T10:02:26;101795.13;;;-4.71;100.00
21203;BME280;10759;51.982;9.232;2022-12-18T10:05:04;101802.88;;;-4.55;100.00
21203;BME280;10759;51.982;9.232;2022-12-18T10:07:50;101812.03;;;-4.64;100.00
21203;BME280;10759;51.982;9.232;2022-12-18T10:10:33;101813.78;;;-4.45;100.00
21203;BME280;10759;51.982;9.232;2022-12-18T10:13:21;101779.66;;;-4.47;100.00
21203;BME280;10759;51.982;9.232;2022-12-18T10:16:03;101786.75;;;-4.05;100.00
21203;BME280;10759;51.982;9.232;2022-12-18T10:18:56;101792.66;;;-4.10;100.00
21203;BME280;10759;51.982;9.232;2022-12-18T10:21:30;101782.84;;;-3.94;100.00
21203;BME280;10759;51.982;9.232;2022-12-18T10:24:04;101789.47;;;-3.83;100.00
21203;BME280;10759;51.982;9.232;2022-12-18T10:26:35;101800.06;;;-3.80;100.00
21203;BME280;10759;51.982;9.232;2022-12-18T10:29:08;101753.78;;;-4.00;100.00
21203;BME280;10759;51.982;9.232;2022-12-18T10:31:40;101790.31;;;-3.63;100.00
21203;BME280;10759;51.982;9.232;2022-12-18T10:34:09;101794.22;;;-3.53;100.00
21203;BME280;10759;51.982;9.232;2022-12-18T10:36:38;101720.97;;;-3.92;99.38
21203;BME280;10759;51.982;9.232;2022-12-18T10:39:17;101736.63;;;-3.73;100.00
21203;BME280;10759;51.982;9.232;2022-12-18T10:41:50;101736.28;;;-3.38;100.00
21203;BME280;10759;51.982;9.232;2022-12-18T10:44:23;101769.63;;;-3.13;100.00
21203;BME280;10759;51.982;9.232;2022-12-18T10:47:04;101755.31;;;-2.99;99.57
21203;BME280;10759;51.982;9.232;2022-12-18T10:49:42;101745.97;;;-2.92;100.00
21203;BME280;10759;51.982;9.232;2022-12-18T10:52:17;101745.78;;;-2.74;100.00
21203;BME280;10759;51.982;9.232;2022-12-18T10:54:48;101738.75;;;-2.75;99.90
21203;BME280;10759;51.982;9.232;2022-12-18T10:57:29;101716.69;;;-2.81;99.47
21203;BME280;10759;51.982;9.232;2022-12-18T11:00:00;101735.28;;;-2.74;97.76
21203;BME280;10759;51.982;9.232;2022-12-18T11:02:35;101734.16;;;-2.57;98.48
21203;BME280;10759;51.982;9.232;2022-12-18T11:05:24;101708.69;;;-2.60;97.09
21203;BME280;10759;51.982;9.232;2022-12-18T11:07:53;101703.16;;;-2.67;97.56
21203;BME280;10759;51.982;9.232;2022-12-18T11:10:27;101729.88;;;-2.55;97.70
21203;BME280;10759;51.982;9.232;2022-12-18T11:12:56;101634.31;;;-2.84;97.12
21203;BME280;10759;51.982;9.232;2022-12-18T11:15:36;101723.53;;;-2.12;95.47
21203;BME280;10759;51.982;9.232;2022-12-18T11:18:16;101713.97;;;-2.10;92.47
21203;BME280;10759;51.982;9.232;2022-12-18T11:20:51;101700.44;;;-1.97;91.09
21203;BME280;10759;51.982;9.232;2022-12-18T11:23:24;101700.63;;;-1.90;91.37
21203;BME280;10759;51.982;9.232;2022-12-18T11:25:56;101704.91;;;-1.94;90.01
21203;BME280;10759;51.982;9.232;2022-12-18T11:28:27;101569.31;;;-2.67;90.63
21203;BME280;10759;51.982;9.232;2022-12-18T11:31:16;101674.94;;;-1.99;92.21
21203;BME280;10759;51.982;9.232;2022-12-18T11:33:51;101696.38;;;-1.87;88.25
21203;BME280;10759;51.982;9.232;2022-12-18T11:36:42;101695.09;;;-1.98;89.46
21203;BME280;10759;51.982;9.232;2022-12-18T11:39:16;101683.88;;;-1.94;90.34
21203;BME280;10759;51.982;9.232;2022-12-18T11:41:50;101676.19;;;-2.13;91.88
21203;BME280;10759;51.982;9.232;2022-12-18T11:44:44;101672.34;;;-1.98;90.94
21203;BME280;10759;51.982;9.232;2022-12-18T11:47:21;101617.63;;;-2.37;89.55
21203;BME280;10759;51.982;9.232;2022-12-18T11:49:55;101651.72;;;-2.12;89.08
21203;BME280;10759;51.982;9.232;2022-12-18T11:52:28;101613.13;;;-2.41;88.56
21203;BME280;10759;51.982;9.232;2022-12-18T11:55:04;101634.59;;;-2.01;89.79
21203;BME280;10759;51.982;9.232;2022-12-18T11:57:39;101571.38;;;-2.31;90.25
21203;BME280;10759;51.982;9.232;2022-12-18T12:00:12;101619.47;;;-2.07;90.50
21203;BME280;10759;51.982;9.232;2022-12-18T12:03:13;101553.69;;;-2.39;90.15
21203;BME280;10759;51.982;9.232;2022-12-18T12:05:54;101607.13;;;-2.11;90.64
21203;BME280;10759;51.982;9.232;2022-12-18T12:08:34;101629.50;;;-1.95;92.04
21203;BME280;10759;51.982;9.232;2022-12-18T12:11:11;101617.06;;;-2.01;91.78
21203;BME280;10759;51.982;9.232;2022-12-18T12:14:00;101545.53;;;-2.19;90.51
21203;BME280;10759;51.982;9.232;2022-12-18T12:16:36;101613.16;;;-1.86;90.43
21203;BME280;10759;51.982;9.232;2022-12-18T12:19:18;101593.03;;;-1.86;88.78
21203;BME280;10759;51.982;9.232;2022-12-18T12:21:58;101600.22;;;-1.80;87.90
21203;BME280;10759;51.982;9.232;2022-12-18T12:24:38;101600.34;;;-1.76;88.69
21203;BME280;10759;51.982;9.232;2022-12-18T12:27:15;101562.75;;;-2.02;89.61
21203;BME280;10759;51.982;9.232;2022-12-18T12:29:52;101581.13;;;-1.75;90.14
21203;BME280;10759;51.982;9.232;2022-12-18T12:32:37;101568.09;;;-1.70;90.61
21203;BME280;10759;51.982;9.232;2022-12-18T12:35:19;101575.34;;;-1.63;90.15
21203;BME280;10759;51.982;9.232;2022-12-18T12:38:00;101580.56;;;-1.64;89.34
21203;BME280;10759;51.982;9.232;2022-12-18T12:40:35;101577.28;;;-1.57;88.83
21203;BME280;10759;51.982;9.232;2022-12-18T12:43:27;101572.53;;;-1.69;88.45
21203;BME280;10759;51.982;9.232;2022-12-18T12:45:58;101371.06;;;-2.85;89.20
21203;BME280;10759;51.982;9.232;2022-12-18T12:48:34;101552.88;;;-1.82;90.62
21203;BME280;10759;51.982;9.232;2022-12-18T12:51:12;101584.88;;;-1.66;91.22
21203;BME280;10759;51.982;9.232;2022-12-18T12:53:43;101437.53;;;-2.57;90.29
21203;BME280;10759;51.982;9.232;2022-12-18T12:56:14;101575.72;;;-1.79;88.30
21203;BME280;10759;51.982;9.232;2022-12-18T12:58:55;101586.81;;;-1.61;89.23
21203;BME280;10759;51.982;9.232;2022-12-18T13:01:33;101563.78;;;-1.68;88.31
21203;BME280;10759;51.982;9.232;2022-12-18T13:04:15;101562.84;;;-1.70;88.95
21203;BME280;10759;51.982;9.232;2022-12-18T13:06:54;101565.19;;;-1.51;88.86
21203;BME280;10759;51.982;9.232;2022-12-18T13:09:31;101569.28;;;-1.60;88.58